South Main, California
Current Conditions -  °F | °C
As of 9:53 PM on Wednesday 26 Nov 2014 (Local Time) from KSNA Reporting Station
Clear Clear  
Wind Chill: 64°   Ceiling: Unl
Heat Index: 64°   Visibility: 10mi
Dew Point: 45°   Wind: 0mph
Humidity: 50%   Direction: NA
Pressure: 30.12"   Gusts: NA
Location:  33.7155°N, 117.871°W
Report Text: KSNA 270553Z 00000KT 10SM CLR 18/07 A3012 RMK AO2 SLP198 T01780072 10250 20178 58000
Loading
Personal Weather Stations






























Interactive Weather Map New forecast layout! Learn more

10-Day Weather Forecast

Advertisements
Track Severe Weather on mobile